Time;durP1;ratioP1;P1;durP2;ratioP2;P2;SDS_P1;SDS_P2;PMS_P1;PMS_P2;Temp;Humidity;BMP_temperature;BMP_pressure;BME280_temperature;BME280_humidity;BME280_pressure;Samples;Min_cycle;Max_cycle;Signal;HPM_P1;HPM_P2
2023/08/15 00:02:20;;;;;;;;;;;17.70;99.90;;;;;;5096916;28;19915;-69
2023/08/15 00:04:47;;;;;;;;;;;18.50;99.90;;;;;;5092731;28;20006;-71
2023/08/15 00:07:14;;;;;;;;;;;18.20;99.90;;;;;;5092178;28;19912;-70
2023/08/15 00:09:41;;;;;;;;;;;18.30;99.90;;;;;;5091845;28;19914;-68
2023/08/15 00:12:08;;;;;;;;;;;18.10;99.90;;;;;;5093538;28;19930;-70
2023/08/15 00:14:35;;;;;;;;;;;17.80;99.90;;;;;;5093774;28;19904;-69
2023/08/15 00:17:02;;;;;;;;;;;17.50;99.90;;;;;;5091752;28;20723;-68
2023/08/15 00:19:28;;;;;;;;;;;17.30;99.90;;;;;;5097207;28;19924;-68
2023/08/15 00:21:55;;;;;;;;;;;18.10;99.90;;;;;;5093217;28;19915;-66
2023/08/15 00:24:22;;;;;;;;;;;18.50;99.90;;;;;;5092855;28;19915;-71
2023/08/15 00:26:49;;;;;;;;;;;19.00;99.90;;;;;;5092832;28;19908;-69
2023/08/15 00:29:16;;;;;;;;;;;19.30;99.90;;;;;;5093563;28;19904;-71
2023/08/15 00:31:43;;;;;;;;;;;19.60;99.90;;;;;;5092453;28;20348;-70
2023/08/15 00:34:10;;;;;;;;;;;19.60;99.90;;;;;;5070378;28;20324;-66
2023/08/15 00:36:37;;;;;;;;;;;20.00;99.90;;;;;;5094655;28;19904;-68
2023/08/15 00:39:03;;;;;;;;;;;20.00;99.90;;;;;;5094135;28;20353;-70
2023/08/15 00:41:30;;;;;;;;;;;19.60;99.90;;;;;;5094812;28;20289;-67
2023/08/15 00:43:58;;;;;;;;;;;19.40;99.90;;;;;;5095710;28;20479;-67
2023/08/15 00:46:27;;;;;;;;;;;19.70;99.90;;;;;;5096236;28;19904;-72
2023/08/15 00:48:55;;;;;;;;;;;20.10;99.90;;;;;;5095750;28;19915;-68
2023/08/15 00:51:22;;;;;;;;;;;20.50;99.90;;;;;;5096075;28;19907;-72
2023/08/15 00:53:49;;;;;;;;;;;20.50;99.90;;;;;;5095986;28;19904;-72
2023/08/15 00:56:17;;;;;;;;;;;20.80;99.90;;;;;;5095242;28;19912;-71
2023/08/15 00:58:44;;;;;;;;;;;20.50;99.90;;;;;;5096109;28;19950;-71
2023/08/15 01:01:15;;;;;;;;;;;20.20;99.90;;;;;;5094380;28;19930;-72
2023/08/15 01:03:42;;;;;;;;;;;20.50;99.90;;;;;;5095779;28;19915;-70
2023/08/15 01:06:09;;;;;;;;;;;21.00;99.90;;;;;;5095698;28;20002;-69
2023/08/15 01:08:36;;;;;;;;;;;21.10;99.90;;;;;;5109851;28;20365;-69
2023/08/15 01:11:04;;;;;;;;;;;20.90;99.90;;;;;;5095074;28;20364;-69
2023/08/15 01:13:31;;;;;;;;;;;21.30;99.90;;;;;;5095912;28;19908;-70
2023/08/15 01:15:59;;;;;;;;;;;21.70;99.90;;;;;;5095222;28;19908;-69
2023/08/15 01:18:37;;;;;;;;;;;21.30;99.90;;;;;;5095097;28;20324;-68
2023/08/15 01:21:04;;;;;;;;;;;21.50;99.90;;;;;;5095576;28;19923;-70
2023/08/15 01:23:44;;;;;;;;;;;22.00;99.90;;;;;;5095599;28;19940;-70
2023/08/15 01:26:11;;;;;;;;;;;21.90;99.90;;;;;;5103092;28;19915;-68
2023/08/15 01:28:41;;;;;;;;;;;20.40;99.90;;;;;;5101397;28;20343;-70
2023/08/15 01:31:23;;;;;;;;;;;20.30;99.90;;;;;;5098236;28;19912;-67
2023/08/15 01:34:08;;;;;;;;;;;20.60;99.90;;;;;;5094704;28;19908;-68
2023/08/15 01:36:38;;;;;;;;;;;21.30;99.90;;;;;;5095280;28;19998;-68
2023/08/15 01:39:06;;;;;;;;;;;21.90;99.90;;;;;;5094813;28;19939;-67
2023/08/15 01:41:36;;;;;;;;;;;21.90;99.90;;;;;;5095648;28;19914;-69
2023/08/15 01:44:04;;;;;;;;;;;21.80;99.90;;;;;;5108991;28;20281;-68
2023/08/15 01:46:31;;;;;;;;;;;22.00;99.90;;;;;;5094902;28;19919;-70
2023/08/15 01:48:59;;;;;;;;;;;22.40;99.90;;;;;;5092518;28;20002;-72
2023/08/15 01:51:26;;;;;;;;;;;22.40;99.90;;;;;;5095349;28;19943;-68
2023/08/15 01:53:53;;;;;;;;;;;22.40;99.90;;;;;;5093491;28;19945;-70
2023/08/15 01:56:20;;;;;;;;;;;22.00;99.90;;;;;;5094272;28;19912;-71
2023/08/15 01:58:47;;;;;;;;;;;22.00;99.90;;;;;;5094468;28;19908;-74
2023/08/15 02:01:14;;;;;;;;;;;22.00;99.90;;;;;;5095022;28;19923;-72
2023/08/15 02:03:41;;;;;;;;;;;21.60;99.90;;;;;;5094326;28;20049;-70
2023/08/15 02:06:08;;;;;;;;;;;21.00;99.90;;;;;;5094728;28;19912;-72
2023/08/15 02:08:34;;;;;;;;;;;20.90;99.90;;;;;;5094236;28;21577;-70
2023/08/15 02:11:01;;;;;;;;;;;21.00;99.90;;;;;;5094272;28;19967;-70
2023/08/15 02:13:32;;;;;;;;;;;21.30;99.90;;;;;;5094356;28;19908;-72
2023/08/15 02:15:59;;;;;;;;;;;20.60;99.90;;;;;;5094557;28;19918;-71
2023/08/15 02:18:27;;;;;;;;;;;19.90;99.90;;;;;;5093172;28;19973;-69
2023/08/15 02:20:54;;;;;;;;;;;20.50;99.90;;;;;;5094405;28;20007;-73
2023/08/15 02:23:21;;;;;;;;;;;20.60;99.90;;;;;;5094529;28;19904;-70
2023/08/15 02:25:48;;;;;;;;;;;20.10;99.90;;;;;;5093977;28;19919;-69
2023/08/15 02:28:15;;;;;;;;;;;20.50;99.90;;;;;;5094578;28;19915;-70
2023/08/15 02:30:42;;;;;;;;;;;20.20;99.90;;;;;;5093928;28;19918;-69
2023/08/15 02:33:08;;;;;;;;;;;19.60;99.90;;;;;;5073724;28;19953;-69
2023/08/15 02:35:38;;;;;;;;;;;18.90;99.90;;;;;;5081807;28;20349;-71
2023/08/15 02:38:05;;;;;;;;;;;18.60;99.90;;;;;;5094196;28;19908;-69
2023/08/15 02:40:32;;;;;;;;;;;18.40;99.90;;;;;;5093457;28;20277;-70
2023/08/15 02:42:59;;;;;;;;;;;18.10;99.90;;;;;;5093772;28;19998;-69
2023/08/15 02:45:26;;;;;;;;;;;17.90;99.90;;;;;;5093701;28;19904;-72
2023/08/15 02:47:53;;;;;;;;;;;17.80;99.90;;;;;;5093829;28;19908;-72
2023/08/15 02:50:19;;;;;;;;;;;17.80;99.90;;;;;;5094175;28;19919;-71
2023/08/15 02:52:46;;;;;;;;;;;17.80;99.90;;;;;;5093866;28;19908;-72
2023/08/15 02:55:13;;;;;;;;;;;17.60;99.90;;;;;;5093455;28;19908;-68
2023/08/15 02:57:40;;;;;;;;;;;17.70;99.90;;;;;;5094013;28;20321;-69
2023/08/15 03:00:07;;;;;;;;;;;17.80;99.90;;;;;;5092675;28;19916;-69
2023/08/15 03:02:34;;;;;;;;;;;17.90;99.90;;;;;;5092897;28;20002;-72
2023/08/15 03:05:01;;;;;;;;;;;18.00;99.90;;;;;;5093595;28;19912;-70
2023/08/15 03:07:28;;;;;;;;;;;18.10;99.90;;;;;;5093485;28;19911;-68
2023/08/15 03:09:55;;;;;;;;;;;18.20;99.90;;;;;;5093000;28;19912;-70
2023/08/15 03:12:22;;;;;;;;;;;18.40;99.90;;;;;;5093363;28;19914;-69
2023/08/15 03:14:49;;;;;;;;;;;18.40;99.90;;;;;;5093525;28;19908;-72
2023/08/15 03:17:18;;;;;;;;;;;18.60;99.90;;;;;;5093039;28;19908;-71
2023/08/15 03:19:45;;;;;;;;;;;19.10;99.90;;;;;;5093351;28;19919;-73
2023/08/15 03:22:12;;;;;;;;;;;19.20;99.90;;;;;;5093140;28;19997;-71
2023/08/15 03:24:39;;;;;;;;;;;19.10;99.90;;;;;;5093013;28;19904;-71
2023/08/15 03:27:06;;;;;;;;;;;18.90;99.90;;;;;;5092935;28;20003;-69
2023/08/15 03:29:34;;;;;;;;;;;18.60;99.90;;;;;;5093273;28;20353;-69
2023/08/15 03:32:01;;;;;;;;;;;18.50;99.90;;;;;;5092940;28;19904;-70
2023/08/15 03:34:28;;;;;;;;;;;18.80;99.90;;;;;;5092636;28;19908;-69
2023/08/15 03:36:56;;;;;;;;;;;19.30;99.90;;;;;;5093095;28;19927;-70
2023/08/15 03:39:23;;;;;;;;;;;19.10;99.90;;;;;;5092156;28;19973;-69
2023/08/15 03:41:49;;;;;;;;;;;19.10;99.90;;;;;;5092903;28;20043;-70
2023/08/15 03:44:16;;;;;;;;;;;20.10;99.90;;;;;;5093071;28;19904;-70
2023/08/15 03:46:45;;;;;;;;;;;21.10;99.90;;;;;;5090731;28;19911;-69
2023/08/15 03:49:12;;;;;;;;;;;20.80;99.90;;;;;;5079727;28;19908;-69
2023/08/15 03:51:39;;;;;;;;;;;20.20;99.90;;;;;;5092907;28;19904;-70
2023/08/15 03:54:08;;;;;;;;;;;20.10;99.90;;;;;;5092401;28;19951;-69
2023/08/15 03:56:35;;;;;;;;;;;19.80;99.90;;;;;;5092824;28;20002;-70
2023/08/15 03:59:02;;;;;;;;;;;19.60;99.90;;;;;;5092391;28;19966;-70
2023/08/15 04:01:29;;;;;;;;;;;19.30;99.90;;;;;;5090978;28;20010;-72
2023/08/15 04:03:56;;;;;;;;;;;19.10;99.90;;;;;;5092767;28;19904;-70
2023/08/15 04:06:23;;;;;;;;;;;18.90;99.90;;;;;;5092669;28;20369;-69
2023/08/15 04:08:50;;;;;;;;;;;18.80;99.90;;;;;;5091512;28;19912;-68
2023/08/15 04:11:17;;;;;;;;;;;18.80;99.90;;;;;;5092242;28;19912;-70
2023/08/15 04:13:44;;;;;;;;;;;18.60;99.90;;;;;;5092564;28;19915;-70
2023/08/15 04:16:11;;;;;;;;;;;18.30;99.90;;;;;;5091909;28;20298;-68
2023/08/15 04:18:37;;;;;;;;;;;18.10;99.90;;;;;;5092049;28;20361;-71
2023/08/15 04:21:10;;;;;;;;;;;17.90;99.90;;;;;;5091747;28;21315;-72
2023/08/15 04:23:37;;;;;;;;;;;18.00;99.90;;;;;;5092213;28;19923;-69
2023/08/15 04:26:05;;;;;;;;;;;17.80;99.90;;;;;;5092566;28;19912;-74
2023/08/15 04:28:32;;;;;;;;;;;17.60;99.90;;;;;;5091738;28;19920;-70
2023/08/15 04:30:59;;;;;;;;;;;17.60;99.90;;;;;;5092060;28;20281;-71
2023/08/15 04:33:26;;;;;;;;;;;17.50;99.90;;;;;;5092457;28;19912;-70
2023/08/15 04:35:53;;;;;;;;;;;17.40;99.90;;;;;;5092672;28;20423;-70
2023/08/15 04:38:20;;;;;;;;;;;17.30;99.90;;;;;;5091939;28;19908;-70
2023/08/15 04:40:47;;;;;;;;;;;17.20;99.90;;;;;;5092328;28;19920;-72
2023/08/15 04:43:14;;;;;;;;;;;17.10;99.90;;;;;;5092339;28;19908;-69
2023/08/15 04:45:43;;;;;;;;;;;17.00;99.90;;;;;;5091879;28;19915;-68
2023/08/15 04:48:10;;;;;;;;;;;17.50;99.90;;;;;;5092140;28;20537;-69
2023/08/15 04:50:37;;;;;;;;;;;18.20;99.90;;;;;;5092063;28;20444;-71
2023/08/15 04:53:05;;;;;;;;;;;18.90;99.90;;;;;;5092032;28;19916;-69
2023/08/15 04:55:32;;;;;;;;;;;19.20;99.90;;;;;;5092480;28;19916;-70
2023/08/15 04:57:59;;;;;;;;;;;19.20;99.90;;;;;;5092508;28;19912;-70
2023/08/15 05:00:26;;;;;;;;;;;19.10;99.90;;;;;;5090964;28;19969;-71
2023/08/15 05:02:53;;;;;;;;;;;18.50;99.90;;;;;;5091508;28;19919;-70
2023/08/15 05:05:19;;;;;;;;;;;18.20;99.90;;;;;;5092019;28;19908;-69
2023/08/15 05:07:46;;;;;;;;;;;17.80;99.90;;;;;;5091667;28;19912;-71
2023/08/15 05:10:13;;;;;;;;;;;17.60;99.90;;;;;;5090519;28;19908;-71
2023/08/15 05:12:40;;;;;;;;;;;17.40;99.90;;;;;;5091557;28;19912;-71
2023/08/15 05:15:07;;;;;;;;;;;17.40;99.90;;;;;;5091482;28;19916;-71
2023/08/15 05:17:35;;;;;;;;;;;17.50;99.90;;;;;;5091928;28;19915;-69
2023/08/15 05:20:03;;;;;;;;;;;17.50;99.90;;;;;;5091342;28;19923;-70
2023/08/15 05:22:31;;;;;;;;;;;17.60;99.90;;;;;;5092488;28;19912;-71
2023/08/15 05:24:57;;;;;;;;;;;17.70;99.90;;;;;;5095428;28;19912;-69
2023/08/15 05:27:24;;;;;;;;;;;18.00;99.90;;;;;;5095580;28;19914;-71
2023/08/15 05:29:51;;;;;;;;;;;18.30;99.90;;;;;;5095058;28;19938;-72
2023/08/15 05:32:18;;;;;;;;;;;18.30;99.90;;;;;;5095598;28;19934;-69
2023/08/15 05:34:45;;;;;;;;;;;18.20;99.90;;;;;;5094939;28;19909;-70
2023/08/15 05:37:12;;;;;;;;;;;18.10;99.90;;;;;;5094687;28;19916;-68
2023/08/15 05:39:39;;;;;;;;;;;18.10;99.90;;;;;;5095470;28;19919;-69
2023/08/15 05:42:06;;;;;;;;;;;18.10;99.90;;;;;;5095041;28;19912;-68
2023/08/15 05:44:32;;;;;;;;;;;18.10;99.90;;;;;;5094301;28;19930;-70
2023/08/15 05:46:59;;;;;;;;;;;18.10;99.90;;;;;;5095218;28;19908;-69
2023/08/15 05:49:26;;;;;;;;;;;18.10;99.90;;;;;;5094836;28;20016;-69
2023/08/15 05:51:53;;;;;;;;;;;17.90;99.90;;;;;;5094426;28;20006;-69
2023/08/15 05:54:21;;;;;;;;;;;17.60;99.90;;;;;;5094157;28;19908;-69
2023/08/15 05:56:48;;;;;;;;;;;17.60;99.90;;;;;;5094909;28;19913;-71
2023/08/15 05:59:15;;;;;;;;;;;17.60;99.90;;;;;;5094355;28;20660;-70
2023/08/15 06:01:42;;;;;;;;;;;17.50;99.90;;;;;;5095022;28;19913;-70
2023/08/15 06:04:09;;;;;;;;;;;17.50;99.90;;;;;;5094897;28;20371;-70
2023/08/15 06:06:35;;;;;;;;;;;17.50;99.90;;;;;;5093852;28;19908;-69
2023/08/15 06:09:02;;;;;;;;;;;17.30;99.90;;;;;;5093348;28;19912;-69
2023/08/15 06:11:30;;;;;;;;;;;17.00;99.90;;;;;;5094757;28;20355;-69
2023/08/15 06:13:57;;;;;;;;;;;16.80;99.90;;;;;;5094379;28;19957;-69
2023/08/15 06:16:23;;;;;;;;;;;16.60;99.90;;;;;;5094207;28;20461;-68
2023/08/15 06:18:50;;;;;;;;;;;16.30;99.90;;;;;;5093882;28;19927;-68
2023/08/15 06:21:17;;;;;;;;;;;16.10;99.90;;;;;;5094039;28;20015;-68
2023/08/15 06:23:44;;;;;;;;;;;16.00;99.90;;;;;;5094125;28;19916;-68
2023/08/15 06:26:11;;;;;;;;;;;15.90;99.90;;;;;;5093950;28;19947;-68
2023/08/15 06:28:38;;;;;;;;;;;15.70;99.90;;;;;;5092522;28;19939;-68
2023/08/15 06:31:04;;;;;;;;;;;15.60;99.90;;;;;;5094102;28;19911;-69
2023/08/15 06:33:31;;;;;;;;;;;15.50;99.90;;;;;;5106479;28;19915;-69
2023/08/15 06:35:58;;;;;;;;;;;15.50;99.90;;;;;;5114165;28;19915;-68
2023/08/15 06:38:25;;;;;;;;;;;15.50;99.90;;;;;;5112755;28;19938;-69
2023/08/15 06:40:52;;;;;;;;;;;15.50;99.90;;;;;;5093522;28;20339;-69
2023/08/15 06:43:19;;;;;;;;;;;15.50;99.90;;;;;;5093527;28;19917;-67
2023/08/15 06:45:46;;;;;;;;;;;15.50;99.90;;;;;;5093836;28;19908;-68
2023/08/15 06:48:13;;;;;;;;;;;15.40;99.90;;;;;;5093915;28;19908;-68
2023/08/15 06:50:39;;;;;;;;;;;15.40;99.90;;;;;;5093331;28;19913;-69
2023/08/15 06:53:06;;;;;;;;;;;15.30;99.90;;;;;;5093773;28;19908;-69
2023/08/15 06:55:33;;;;;;;;;;;15.10;99.90;;;;;;5092985;28;19996;-69
2023/08/15 06:58:01;;;;;;;;;;;14.90;99.90;;;;;;5093139;28;19968;-70
2023/08/15 07:00:28;;;;;;;;;;;14.80;99.90;;;;;;5093133;28;19978;-69
2023/08/15 07:02:55;;;;;;;;;;;14.70;99.90;;;;;;5093635;28;20023;-70
2023/08/15 07:05:21;;;;;;;;;;;14.70;99.90;;;;;;5092821;28;20388;-68
2023/08/15 07:07:48;;;;;;;;;;;14.70;99.90;;;;;;5093727;28;20258;-69
2023/08/15 07:10:15;;;;;;;;;;;14.60;99.90;;;;;;5093181;28;20262;-69
2023/08/15 07:12:42;;;;;;;;;;;14.50;99.90;;;;;;5095243;28;20042;-68
2023/08/15 07:15:10;;;;;;;;;;;14.50;99.90;;;;;;5094499;28;19912;-68
2023/08/15 07:17:37;;;;;;;;;;;14.40;99.90;;;;;;5094004;28;19938;-69
2023/08/15 07:20:05;;;;;;;;;;;14.20;99.90;;;;;;5092588;28;19985;-68
2023/08/15 07:22:32;;;;;;;;;;;14.20;99.90;;;;;;5092906;28;19912;-69
2023/08/15 07:25:00;;;;;;;;;;;14.10;99.90;;;;;;5093403;28;20377;-69
2023/08/15 07:27:27;;;;;;;;;;;14.00;99.90;;;;;;5092353;28;19958;-68
2023/08/15 07:29:54;;;;;;;;;;;13.90;99.90;;;;;;5092018;28;19923;-69
2023/08/15 07:32:21;;;;;;;;;;;13.90;99.90;;;;;;5093295;28;20010;-70
2023/08/15 07:34:48;;;;;;;;;;;13.80;99.90;;;;;;5092716;28;19912;-71
2023/08/15 07:37:15;;;;;;;;;;;13.80;99.90;;;;;;5092904;28;19916;-70
2023/08/15 07:39:42;;;;;;;;;;;13.70;99.90;;;;;;5102802;28;19920;-70
2023/08/15 07:42:10;;;;;;;;;;;13.60;99.90;;;;;;5113122;28;20438;-69
2023/08/15 07:44:36;;;;;;;;;;;13.50;99.90;;;;;;5094608;28;19951;-69
2023/08/15 07:47:03;;;;;;;;;;;13.50;99.90;;;;;;5092449;28;19920;-69
2023/08/15 07:49:33;;;;;;;;;;;13.40;99.90;;;;;;5092462;28;19912;-68
2023/08/15 07:52:00;;;;;;;;;;;13.40;99.90;;;;;;5092972;28;20335;-69
2023/08/15 07:54:27;;;;;;;;;;;13.30;99.90;;;;;;5092817;28;19908;-70
2023/08/15 07:56:54;;;;;;;;;;;13.20;99.90;;;;;;5091980;28;19912;-69
2023/08/15 07:59:21;;;;;;;;;;;13.20;99.90;;;;;;5092576;28;19920;-69
2023/08/15 08:01:48;;;;;;;;;;;13.10;99.90;;;;;;5092959;28;19908;-69
2023/08/15 08:04:15;;;;;;;;;;;13.10;99.90;;;;;;5092212;28;19912;-68
2023/08/15 08:06:42;;;;;;;;;;;13.10;99.90;;;;;;5100658;28;19972;-70
2023/08/15 08:09:08;;;;;;;;;;;13.10;99.90;;;;;;5109847;28;19957;-69
2023/08/15 08:11:35;;;;;;;;;;;13.00;99.90;;;;;;5100461;28;19959;-68
2023/08/15 08:14:03;;;;;;;;;;;12.90;99.90;;;;;;5092684;28;20015;-69
2023/08/15 08:16:30;;;;;;;;;;;12.80;99.90;;;;;;5092458;28;19945;-69
2023/08/15 08:18:57;;;;;;;;;;;12.90;99.90;;;;;;5091773;28;19927;-69
2023/08/15 08:21:24;;;;;;;;;;;12.80;99.90;;;;;;5092713;28;19969;-71
2023/08/15 08:23:51;;;;;;;;;;;12.70;99.90;;;;;;5092253;28;19919;-70
2023/08/15 08:26:18;;;;;;;;;;;12.70;99.90;;;;;;5092292;28;19916;-72
2023/08/15 08:28:44;;;;;;;;;;;12.60;99.90;;;;;;5091440;28;19912;-68
2023/08/15 08:31:11;;;;;;;;;;;12.50;99.90;;;;;;5090872;28;20416;-70
2023/08/15 08:33:38;;;;;;;;;;;12.40;99.90;;;;;;5091781;28;19931;-69
2023/08/15 08:36:05;;;;;;;;;;;12.30;99.90;;;;;;5091497;28;20009;-70
2023/08/15 08:38:32;;;;;;;;;;;12.30;99.90;;;;;;5091662;28;19993;-71
2023/08/15 08:40:59;;;;;;;;;;;12.20;99.90;;;;;;5090694;28;19916;-72
2023/08/15 08:43:26;;;;;;;;;;;12.20;99.90;;;;;;5091041;28;19909;-70
2023/08/15 08:45:54;;;;;;;;;;;12.20;99.90;;;;;;5091644;28;19912;-72
2023/08/15 08:48:21;;;;;;;;;;;12.20;99.90;;;;;;5091506;28;19908;-70
2023/08/15 08:50:49;;;;;;;;;;;12.20;99.90;;;;;;5091447;28;19912;-71
2023/08/15 08:53:16;;;;;;;;;;;12.20;99.90;;;;;;5091709;28;19912;-67
2023/08/15 08:55:46;;;;;;;;;;;12.20;99.90;;;;;;5089855;28;19916;-67
2023/08/15 08:58:13;;;;;;;;;;;12.20;99.90;;;;;;5095131;28;19916;-68
2023/08/15 09:00:41;;;;;;;;;;;12.20;99.90;;;;;;5095556;28;19924;-70
2023/08/15 09:03:08;;;;;;;;;;;12.20;99.90;;;;;;5095498;28;19919;-69
2023/08/15 09:05:35;;;;;;;;;;;12.30;99.90;;;;;;5093985;28;20003;-68
2023/08/15 09:08:02;;;;;;;;;;;12.40;99.90;;;;;;5095748;28;19912;-68
2023/08/15 09:10:29;;;;;;;;;;;12.50;99.90;;;;;;5094060;28;20396;-69
2023/08/15 09:13:00;;;;;;;;;;;12.50;99.90;;;;;;5095306;28;19908;-70
2023/08/15 09:15:27;;;;;;;;;;;12.50;99.90;;;;;;5093676;28;20474;-69
2023/08/15 09:18:00;;;;;;;;;;;12.50;99.90;;;;;;5095538;28;20358;-70
2023/08/15 09:20:28;;;;;;;;;;;12.50;99.90;;;;;;5095041;28;20369;-70
2023/08/15 09:22:58;;;;;;;;;;;12.40;99.90;;;;;;5096185;28;19920;-70
2023/08/15 09:25:26;;;;;;;;;;;12.50;99.90;;;;;;5096113;28;19912;-70
2023/08/15 09:27:56;;;;;;;;;;;12.50;99.90;;;;;;5096040;28;19912;-71
2023/08/15 09:30:23;;;;;;;;;;;12.50;99.90;;;;;;5096134;28;19915;-70
2023/08/15 09:32:50;;;;;;;;;;;12.50;99.90;;;;;;5095992;28;20003;-70
2023/08/15 09:35:18;;;;;;;;;;;12.50;99.90;;;;;;5094977;28;19913;-70
2023/08/15 09:37:46;;;;;;;;;;;12.50;99.90;;;;;;5096334;28;19908;-72
2023/08/15 09:40:19;;;;;;;;;;;12.40;99.90;;;;;;5095985;28;20001;-69
2023/08/15 09:42:46;;;;;;;;;;;12.40;99.90;;;;;;5095916;28;19993;-69
2023/08/15 09:45:17;;;;;;;;;;;12.20;99.90;;;;;;5095153;28;19974;-71
2023/08/15 09:47:44;;;;;;;;;;;12.10;99.90;;;;;;5095999;28;19934;-73
2023/08/15 09:50:15;;;;;;;;;;;12.10;99.90;;;;;;5096022;28;19912;-72
2023/08/15 09:52:43;;;;;;;;;;;11.90;99.90;;;;;;5095505;28;19920;-72
2023/08/15 09:55:11;;;;;;;;;;;11.80;99.90;;;;;;5095029;28;19912;-70
2023/08/15 09:57:39;;;;;;;;;;;11.80;99.90;;;;;;5095948;28;19908;-72
2023/08/15 10:00:17;;;;;;;;;;;11.80;99.90;;;;;;5095653;28;19917;-70
2023/08/15 10:02:50;;;;;;;;;;;11.70;99.90;;;;;;5095879;28;20322;-71
2023/08/15 10:05:20;;;;;;;;;;;11.60;99.90;;;;;;5095285;28;19912;-73
2023/08/15 10:07:47;;;;;;;;;;;11.60;99.90;;;;;;5094903;28;19912;-72
2023/08/15 10:10:15;;;;;;;;;;;11.50;99.90;;;;;;5095471;28;19908;-72
2023/08/15 10:12:44;;;;;;;;;;;11.50;99.90;;;;;;5095060;28;20354;-71
2023/08/15 10:15:15;;;;;;;;;;;11.50;99.90;;;;;;5095134;28;19918;-71
2023/08/15 10:17:43;;;;;;;;;;;11.40;99.90;;;;;;5095597;28;20378;-72
2023/08/15 10:20:12;;;;;;;;;;;11.30;99.90;;;;;;5094827;28;19967;-71
2023/08/15 10:22:39;;;;;;;;;;;11.20;99.90;;;;;;5094191;28;19923;-73
2023/08/15 10:25:38;;;;;;;;;;;11.20;99.90;;;;;;5095124;28;19919;-72
2023/08/15 10:28:12;;;;;;;;;;;11.10;99.90;;;;;;5082636;28;19974;-72
2023/08/15 10:30:46;;;;;;;;;;;11.00;99.90;;;;;;5095249;28;19970;-71
2023/08/15 10:33:13;;;;;;;;;;;11.00;99.90;;;;;;5094000;28;19922;-71
2023/08/15 10:36:00;;;;;;;;;;;10.90;99.90;;;;;;5079659;28;19912;-70
2023/08/15 10:38:31;;;;;;;;;;;10.80;99.90;;;;;;5088908;28;19908;-72
2023/08/15 10:41:04;;;;;;;;;;;10.80;99.90;;;;;;5093170;28;20016;-70
2023/08/15 10:43:35;;;;;;;;;;;10.80;99.90;;;;;;5092631;28;20064;-73
2023/08/15 10:46:05;;;;;;;;;;;10.80;99.90;;;;;;5093232;28;19920;-72
2023/08/15 10:48:51;;;;;;;;;;;10.90;99.90;;;;;;5093476;28;19916;-70
2023/08/15 10:51:26;;;;;;;;;;;10.90;99.90;;;;;;5092647;28;19913;-70
2023/08/15 10:53:54;;;;;;;;;;;10.90;99.90;;;;;;5093172;28;19912;-70
2023/08/15 10:56:23;;;;;;;;;;;10.90;99.90;;;;;;5091236;28;20015;-71
2023/08/15 10:58:52;;;;;;;;;;;10.90;99.90;;;;;;5092505;28;20362;-71
2023/08/15 11:01:28;;;;;;;;;;;11.00;99.90;;;;;;5092698;28;20396;-72
2023/08/15 11:03:57;;;;;;;;;;;11.00;99.90;;;;;;5093126;28;20004;-70
2023/08/15 11:06:24;;;;;;;;;;;11.10;99.90;;;;;;5090989;28;19911;-69
2023/08/15 11:08:55;;;;;;;;;;;11.20;99.90;;;;;;5092822;28;19908;-71
2023/08/15 11:11:23;;;;;;;;;;;11.20;99.90;;;;;;5092322;28;19955;-71
2023/08/15 11:13:50;;;;;;;;;;;11.30;99.90;;;;;;5091682;28;20383;-71
2023/08/15 11:16:19;;;;;;;;;;;11.30;99.90;;;;;;5090121;28;19916;-70
2023/08/15 11:18:46;;;;;;;;;;;11.30;99.90;;;;;;5086491;28;20013;-71
2023/08/15 11:21:14;;;;;;;;;;;11.30;99.90;;;;;;5091272;28;19920;-70
2023/08/15 11:23:41;;;;;;;;;;;11.30;99.90;;;;;;5091374;28;19947;-72
2023/08/15 11:26:14;;;;;;;;;;;11.40;99.90;;;;;;5091231;28;20315;-71
2023/08/15 11:28:41;;;;;;;;;;;11.40;99.90;;;;;;5092097;28;19909;-71
2023/08/15 11:31:11;;;;;;;;;;;11.30;99.90;;;;;;5092635;28;20262;-70
2023/08/15 11:33:42;;;;;;;;;;;11.30;99.90;;;;;;5093049;28;19934;-71
2023/08/15 11:36:11;;;;;;;;;;;11.20;99.90;;;;;;5092259;28;19998;-70
2023/08/15 11:38:39;;;;;;;;;;;11.20;99.90;;;;;;5093998;28;19912;-71
2023/08/15 11:41:06;;;;;;;;;;;11.20;99.90;;;;;;5093843;28;19967;-71
2023/08/15 11:43:36;;;;;;;;;;;11.20;99.90;;;;;;5092145;28;19930;-70
2023/08/15 11:46:04;;;;;;;;;;;11.20;99.90;;;;;;5092956;28;19965;-72
2023/08/15 11:48:31;;;;;;;;;;;11.10;99.90;;;;;;5092833;28;20341;-71
2023/08/15 11:50:59;;;;;;;;;;;11.00;99.90;;;;;;5092924;28;19965;-71
2023/08/15 11:53:26;;;;;;;;;;;11.10;99.90;;;;;;5093119;28;19912;-70
2023/08/15 11:55:53;;;;;;;;;;;11.10;99.90;;;;;;5091794;28;19916;-70
2023/08/15 11:58:30;;;;;;;;;;;11.10;99.90;;;;;;5093359;28;19912;-69
2023/08/15 12:01:11;;;;;;;;;;;11.10;99.90;;;;;;5093867;28;19992;-70
2023/08/15 12:03:39;;;;;;;;;;;11.10;99.90;;;;;;5093543;28;19914;-68
2023/08/15 12:06:06;;;;;;;;;;;11.00;99.90;;;;;;5091423;28;19920;-70
2023/08/15 12:08:33;;;;;;;;;;;11.00;99.90;;;;;;5092062;28;19908;-70
2023/08/15 12:11:04;;;;;;;;;;;11.00;99.90;;;;;;5091759;28;19938;-70
2023/08/15 12:13:34;;;;;;;;;;;10.90;99.90;;;;;;5093411;28;19908;-69
2023/08/15 12:16:02;;;;;;;;;;;10.90;99.90;;;;;;5093418;28;19919;-72
2023/08/15 12:18:29;;;;;;;;;;;11.00;99.90;;;;;;5125485;27;20050;-70
2023/08/15 12:20:57;;;;;;;;;;;11.00;99.90;;;;;;5090988;28;20373;-72
2023/08/15 12:23:24;;;;;;;;;;;11.20;99.90;;;;;;5093292;28;19912;-70
2023/08/15 12:25:50;;;;;;;;;;;11.20;99.90;;;;;;5092835;28;19919;-70
2023/08/15 12:28:20;;;;;;;;;;;11.30;99.90;;;;;;5091412;28;19911;-69
2023/08/15 12:30:47;;;;;;;;;;;11.30;99.90;;;;;;5091207;28;19916;-71
2023/08/15 12:33:14;;;;;;;;;;;11.40;99.90;;;;;;5125425;28;19912;-71
2023/08/15 12:35:42;;;;;;;;;;;11.30;99.90;;;;;;5092433;28;19912;-70
2023/08/15 12:38:09;;;;;;;;;;;11.30;99.90;;;;;;5093129;28;19911;-70
2023/08/15 12:40:36;;;;;;;;;;;11.20;99.90;;;;;;5092813;28;20363;-72
2023/08/15 12:43:03;;;;;;;;;;;11.20;99.90;;;;;;5091045;28;20040;-70
2023/08/15 12:45:30;;;;;;;;;;;11.10;99.90;;;;;;5092843;28;19919;-69
2023/08/15 12:47:56;;;;;;;;;;;11.00;99.90;;;;;;5092238;28;19916;-71
2023/08/15 12:50:23;;;;;;;;;;;10.90;99.90;;;;;;5092675;28;19995;-70
2023/08/15 12:52:50;;;;;;;;;;;10.80;99.90;;;;;;5091092;28;20006;-70
2023/08/15 12:55:17;;;;;;;;;;;10.70;99.90;;;;;;5092178;28;19912;-70
2023/08/15 12:57:44;;;;;;;;;;;10.70;99.90;;;;;;5092582;28;19954;-69
2023/08/15 13:00:11;;;;;;;;;;;10.60;99.90;;;;;;5090554;28;19959;-70
2023/08/15 13:02:38;;;;;;;;;;;10.60;99.90;;;;;;5092021;28;20416;-70
2023/08/15 13:05:07;;;;;;;;;;;10.60;99.90;;;;;;5091363;28;19912;-70
2023/08/15 13:07:37;;;;;;;;;;;10.50;99.90;;;;;;5092671;28;19915;-69
2023/08/15 13:10:07;;;;;;;;;;;10.50;99.90;;;;;;5091190;28;19912;-71
2023/08/15 13:12:34;;;;;;;;;;;10.50;99.90;;;;;;5091585;28;20319;-70
2023/08/15 13:15:05;;;;;;;;;;;10.40;99.90;;;;;;5090879;28;19961;-70
2023/08/15 13:17:32;;;;;;;;;;;10.40;99.90;;;;;;5092951;28;20019;-72
2023/08/15 13:19:59;;;;;;;;;;;10.40;99.90;;;;;;5090458;28;19973;-71
2023/08/15 13:22:25;;;;;;;;;;;10.40;99.90;;;;;;5092765;28;19965;-70
2023/08/15 13:24:53;;;;;;;;;;;10.30;99.90;;;;;;5092514;28;19916;-69
2023/08/15 13:27:20;;;;;;;;;;;10.30;99.90;;;;;;5091275;28;20312;-70
2023/08/15 13:29:47;;;;;;;;;;;10.30;99.90;;;;;;5091920;28;19919;-69
2023/08/15 13:32:13;;;;;;;;;;;10.30;99.90;;;;;;5091915;28;19912;-69
2023/08/15 13:34:40;;;;;;;;;;;10.30;99.90;;;;;;5092553;28;19908;-70
2023/08/15 13:37:07;;;;;;;;;;;10.30;99.90;;;;;;5091511;28;19912;-68
2023/08/15 13:39:34;;;;;;;;;;;10.20;99.90;;;;;;5091874;28;19924;-69
2023/08/15 13:42:01;;;;;;;;;;;10.20;99.90;;;;;;5092343;28;19916;-69
2023/08/15 13:44:29;;;;;;;;;;;10.20;99.90;;;;;;5094502;28;19916;-69
2023/08/15 13:46:56;;;;;;;;;;;10.10;99.90;;;;;;5095857;28;20440;-69
2023/08/15 13:49:26;;;;;;;;;;;10.10;99.90;;;;;;5093841;28;19955;-71
2023/08/15 13:51:56;;;;;;;;;;;10.10;99.90;;;;;;5095194;28;19923;-70
2023/08/15 13:54:23;;;;;;;;;;;10.10;99.90;;;;;;5095764;28;19930;-70
2023/08/15 13:56:50;;;;;;;;;;;10.10;99.90;;;;;;5095552;28;19935;-70
2023/08/15 13:59:17;;;;;;;;;;;10.00;99.90;;;;;;5095443;28;19920;-69
2023/08/15 14:01:44;;;;;;;;;;;10.00;99.90;;;;;;5094791;28;19912;-69
2023/08/15 14:04:11;;;;;;;;;;;10.00;99.90;;;;;;5095721;28;19908;-69
2023/08/15 14:06:37;;;;;;;;;;;10.00;99.90;;;;;;5095370;28;19998;-70
2023/08/15 14:09:04;;;;;;;;;;;10.00;99.90;;;;;;5094973;28;19912;-69
2023/08/15 14:11:31;;;;;;;;;;;10.00;99.90;;;;;;5095077;28;19912;-70
2023/08/15 14:13:58;;;;;;;;;;;10.00;99.90;;;;;;5093989;28;20001;-70
2023/08/15 14:16:25;;;;;;;;;;;9.90;99.90;;;;;;5095089;28;19919;-69
2023/08/15 14:18:52;;;;;;;;;;;10.00;99.90;;;;;;5094679;28;20012;-68
2023/08/15 14:21:19;;;;;;;;;;;10.10;99.90;;;;;;5095021;28;19920;-68